createdAt,value
2019-05-16T00:01:52.702Z,0.95
2019-05-16T00:03:57.963Z,1.10
2019-05-16T00:06:02.978Z,0.80
2019-05-16T00:08:12.476Z,0.70
2019-05-16T00:10:14.522Z,0.55
2019-05-16T00:12:19.303Z,0.80
2019-05-16T00:14:24.110Z,0.70
2019-05-16T00:16:28.895Z,0.75
2019-05-16T00:18:33.707Z,0.60
2019-05-16T00:20:38.716Z,0.70
2019-05-16T00:22:43.540Z,0.53
2019-05-16T00:24:48.742Z,0.70
2019-05-16T00:26:53.639Z,0.50
2019-05-16T00:28:58.910Z,0.62
2019-05-16T00:31:04.011Z,0.75
2019-05-16T00:33:08.826Z,0.60
2019-05-16T00:35:13.587Z,0.40
2019-05-16T00:37:18.352Z,0.70
2019-05-16T00:39:23.181Z,1.00
2019-05-16T00:41:28.316Z,0.55
2019-05-16T00:43:33.372Z,0.55
2019-05-16T00:45:38.657Z,0.70
2019-05-16T00:47:43.494Z,0.60
2019-05-16T00:49:48.430Z,0.50
2019-05-16T00:51:53.193Z,0.50
2019-05-16T00:53:58.790Z,0.50
2019-05-16T00:56:04.010Z,0.65
2019-05-16T00:58:08.986Z,0.55
2019-05-16T01:00:14.238Z,0.60
2019-05-16T01:02:18.974Z,0.68
2019-05-16T01:04:23.751Z,0.93
2019-05-16T01:06:28.768Z,0.68
2019-05-16T01:08:33.793Z,0.47
2019-05-16T01:10:39.056Z,0.50
2019-05-16T01:12:44.022Z,0.60
2019-05-16T01:14:48.878Z,0.50
2019-05-16T01:16:53.634Z,0.62
2019-05-16T01:18:58.968Z,0.50
2019-05-16T01:21:04.122Z,0.50
2019-05-16T01:23:09.019Z,0.60
2019-05-16T01:25:13.858Z,0.65
2019-05-16T01:27:18.647Z,0.50
2019-05-16T01:29:23.434Z,0.70
2019-05-16T01:31:28.220Z,0.70
2019-05-16T01:33:33.035Z,0.40
2019-05-16T01:35:38.619Z,0.55
2019-05-16T01:37:43.646Z,0.70
2019-05-16T01:39:48.527Z,0.55
2019-05-16T01:41:53.363Z,0.60
2019-05-16T01:43:58.489Z,0.57
2019-05-16T01:46:03.578Z,0.70
2019-05-16T01:48:08.461Z,0.55
2019-05-16T01:50:13.344Z,0.72
2019-05-16T01:52:18.122Z,0.90
2019-05-16T01:54:22.902Z,0.70
2019-05-16T01:56:28.085Z,0.80
2019-05-16T01:58:33.006Z,0.60
2019-05-16T02:00:49.608Z,0.60
2019-05-16T02:02:45.158Z,0.75
2019-05-16T02:04:49.962Z,0.65
2019-05-16T02:06:55.189Z,0.70
2019-05-16T02:09:00.274Z,0.75
2019-05-16T02:11:05.114Z,1.00
2019-05-16T02:13:09.886Z,0.80
2019-05-16T02:15:14.675Z,0.98
2019-05-16T02:17:19.410Z,0.82
2019-05-16T02:19:24.190Z,0.65
2019-05-16T02:21:28.942Z,0.78
2019-05-16T02:23:35.298Z,0.85
2019-05-16T02:25:40.815Z,0.70
2019-05-16T02:27:48.596Z,0.93
2019-05-16T02:29:52.307Z,0.53
2019-05-16T02:31:57.089Z,0.80
2019-05-16T02:34:04.801Z,0.55
2019-05-16T02:36:27.380Z,0.60
2019-05-16T02:38:33.701Z,0.60
2019-05-16T02:40:41.528Z,0.68
2019-05-16T02:42:46.574Z,0.88
2019-05-16T02:44:51.415Z,1.00
2019-05-16T02:46:56.266Z,1.05
2019-05-16T02:49:21.666Z,1.02
2019-05-16T02:51:26.692Z,1.20
2019-05-16T02:53:31.471Z,0.75
2019-05-16T02:55:55.263Z,0.62
2019-05-16T02:58:01.254Z,0.60
2019-05-16T03:00:06.706Z,0.70
2019-05-16T03:02:11.789Z,0.93
2019-05-16T03:04:16.846Z,0.50
2019-05-16T03:06:41.237Z,0.60
2019-05-16T03:08:46.546Z,0.88
2019-05-16T03:10:53.207Z,0.55
2019-05-16T03:13:00.992Z,0.70
2019-05-16T03:15:04.684Z,1.07
2019-05-16T03:17:12.503Z,0.62
2019-05-16T03:19:21.689Z,0.80
2019-05-16T03:21:47.255Z,0.60
2019-05-16T03:23:52.029Z,0.80
2019-05-16T03:25:56.790Z,0.70
2019-05-16T03:28:03.158Z,0.60
2019-05-16T03:30:08.007Z,0.75
2019-05-16T03:32:14.303Z,0.70
2019-05-16T03:34:25.136Z,0.60
2019-05-16T03:36:44.739Z,0.90
2019-05-16T03:38:50.720Z,1.40
2019-05-16T03:40:55.766Z,1.50
2019-05-16T03:43:01.526Z,0.60
2019-05-16T03:45:06.674Z,0.82
2019-05-16T03:47:11.449Z,1.17
2019-05-16T03:49:16.295Z,0.60
2019-05-16T03:51:21.766Z,0.70
2019-05-16T03:53:26.983Z,0.90
2019-05-16T03:55:32.708Z,1.02
2019-05-16T03:57:37.580Z,0.90
2019-05-16T03:59:42.877Z,1.20
2019-05-16T04:01:50.904Z,0.70
2019-05-16T04:03:54.188Z,0.80
2019-05-16T04:06:01.173Z,0.80
2019-05-16T04:08:15.206Z,1.32
2019-05-16T04:10:12.035Z,0.60
2019-05-16T04:12:16.782Z,0.80
2019-05-16T04:14:21.714Z,1.07
2019-05-16T04:16:26.526Z,0.80
2019-05-16T04:18:32.019Z,0.95
2019-05-16T04:20:37.239Z,0.68
2019-05-16T04:22:42.006Z,0.80
2019-05-16T04:24:46.812Z,0.78
2019-05-16T04:26:52.017Z,0.85
2019-05-16T04:28:56.990Z,0.80
2019-05-16T04:31:02.401Z,0.93
2019-05-16T04:33:07.273Z,0.70
2019-05-16T04:35:12.029Z,0.80
2019-05-16T04:37:16.883Z,0.80
2019-05-16T04:39:21.992Z,0.98
2019-05-16T04:41:26.846Z,1.00
2019-05-16T04:43:31.915Z,0.78
2019-05-16T04:45:36.850Z,0.60
2019-05-16T04:47:41.738Z,0.82
2019-05-16T04:49:46.505Z,0.80
2019-05-16T04:51:51.916Z,0.90
2019-05-16T04:53:56.971Z,0.75
2019-05-16T04:56:02.218Z,0.90
2019-05-16T04:58:23.421Z,0.95
2019-05-16T05:00:21.169Z,1.00
2019-05-16T05:02:24.790Z,0.78
2019-05-16T05:04:30.609Z,0.70
2019-05-16T05:06:35.682Z,0.80
2019-05-16T05:08:51.840Z,0.60
2019-05-16T05:10:46.936Z,1.05
2019-05-16T05:12:51.825Z,0.93
2019-05-16T05:14:56.655Z,0.85
2019-05-16T05:17:05.234Z,0.60
2019-05-16T05:19:10.875Z,0.60
2019-05-16T05:21:15.781Z,0.55
2019-05-16T05:23:21.128Z,0.60
2019-05-16T05:25:27.038Z,0.85
2019-05-16T05:27:31.867Z,0.72
2019-05-16T05:29:36.667Z,2.87
2019-05-16T05:31:44.791Z,0.80
2019-05-16T05:33:50.556Z,0.78
2019-05-16T05:35:55.163Z,1.00
2019-05-16T05:38:00.467Z,0.70
2019-05-16T05:40:05.655Z,0.50
2019-05-16T05:42:10.635Z,0.90
2019-05-16T05:44:15.772Z,1.35
2019-05-16T05:46:20.708Z,1.20
2019-05-16T05:48:25.543Z,0.93
2019-05-16T05:50:30.728Z,1.00
2019-05-16T05:52:35.629Z,1.12
2019-05-16T05:54:40.873Z,1.00
2019-05-16T05:56:45.670Z,0.93
2019-05-16T05:58:51.229Z,1.12
2019-05-16T06:00:56.246Z,0.95
2019-05-16T06:03:01.027Z,0.88
2019-05-16T06:05:05.909Z,0.85
2019-05-16T06:07:10.743Z,0.70
2019-05-16T06:09:26.391Z,1.50
2019-05-16T06:11:21.964Z,0.75
2019-05-16T06:13:26.731Z,0.85
2019-05-16T06:15:31.490Z,0.90
2019-05-16T06:17:36.275Z,0.65
2019-05-16T06:19:41.023Z,0.50
2019-05-16T06:21:45.834Z,0.68
2019-05-16T06:23:51.017Z,0.90
2019-05-16T06:25:55.811Z,0.62
2019-05-16T06:28:00.582Z,0.62
2019-05-16T06:30:05.474Z,0.70
2019-05-16T06:32:10.419Z,0.50
2019-05-16T06:34:15.486Z,0.50
2019-05-16T06:36:20.550Z,0.70
2019-05-16T06:38:25.418Z,0.65
2019-05-16T06:40:30.179Z,0.50
2019-05-16T06:42:34.922Z,0.40
2019-05-16T06:44:40.227Z,0.45
2019-05-16T06:47:00.568Z,0.60
2019-05-16T06:48:51.683Z,0.50
2019-05-16T06:51:02.551Z,0.80
2019-05-16T06:53:03.906Z,0.40
2019-05-16T06:55:10.178Z,0.57
2019-05-16T06:57:15.238Z,0.93
2019-05-16T06:59:20.317Z,0.62
2019-05-16T07:01:25.247Z,0.70
2019-05-16T07:03:30.890Z,1.60
2019-05-16T07:05:35.870Z,1.50
2019-05-16T07:07:40.692Z,1.60
2019-05-16T07:09:58.157Z,2.50
2019-05-16T07:11:51.942Z,1.90
2019-05-16T07:13:56.821Z,1.82
2019-05-16T07:16:01.659Z,1.82
2019-05-16T07:18:06.394Z,1.60
2019-05-16T07:20:11.469Z,1.70
2019-05-16T07:22:15.955Z,2.83
2019-05-16T07:24:20.777Z,1.50
2019-05-16T07:26:25.371Z,2.30
2019-05-16T07:28:30.163Z,1.97
2019-05-16T07:30:35.070Z,2.03
2019-05-16T07:32:40.457Z,1.53
2019-05-16T07:34:45.242Z,2.50
2019-05-16T07:36:50.330Z,2.03
2019-05-16T07:38:55.111Z,2.03
2019-05-16T07:40:59.939Z,2.50
2019-05-16T07:43:04.640Z,2.00
2019-05-16T07:45:10.892Z,2.20
2019-05-16T07:47:15.530Z,2.03
2019-05-16T07:49:20.019Z,2.50
2019-05-16T07:51:24.526Z,2.40
2019-05-16T07:53:32.800Z,1.90
2019-05-16T07:55:35.230Z,2.00
2019-05-16T07:57:40.069Z,1.50
2019-05-16T07:59:44.978Z,1.63
2019-05-16T08:01:53.746Z,1.80
2019-05-16T08:03:55.698Z,1.60
2019-05-16T08:06:01.599Z,1.40
2019-05-16T08:08:06.555Z,1.57
2019-05-16T08:10:11.127Z,1.30
2019-05-16T08:12:15.631Z,1.70
2019-05-16T08:14:21.283Z,1.73
2019-05-16T08:16:26.111Z,1.73
2019-05-16T08:18:30.698Z,1.90
2019-05-16T08:20:35.232Z,1.73
2019-05-16T08:22:41.508Z,2.57
2019-05-16T08:24:46.030Z,1.80
2019-05-16T08:26:51.343Z,1.70
2019-05-16T08:28:56.207Z,1.67
2019-05-16T08:31:01.122Z,1.97
2019-05-16T08:33:05.899Z,2.00
2019-05-16T08:35:11.263Z,1.67
2019-05-16T08:39:22.185Z,1.63
2019-05-16T08:41:26.665Z,1.70
2019-05-16T08:43:31.723Z,2.43
2019-05-16T08:45:36.479Z,1.87
2019-05-16T08:47:42.166Z,2.63
2019-05-16T08:49:51.443Z,1.60
2019-05-16T08:51:53.504Z,1.80
2019-05-16T08:54:01.429Z,1.70
2019-05-16T08:56:06.319Z,1.90
2019-05-16T08:58:13.497Z,1.70
2019-05-16T09:00:17.601Z,1.90
2019-05-16T09:04:33.967Z,2.00
2019-05-16T09:06:36.110Z,1.70
2019-05-16T09:08:40.600Z,1.63
2019-05-16T09:10:32.872Z,2.33
2019-05-16T09:10:40.811Z,2.03
2019-05-16T09:10:55.735Z,1.67
2019-05-16T09:12:51.339Z,1.73
2019-05-16T09:14:59.387Z,1.60
2019-05-16T09:17:02.107Z,1.83
2019-05-16T09:19:07.728Z,1.23
2019-05-16T09:21:12.559Z,1.90
2019-05-16T09:23:17.991Z,2.07
2019-05-16T09:25:22.687Z,2.13
2019-05-16T09:27:27.464Z,1.60
2019-05-16T09:29:32.097Z,1.73
2019-05-16T09:31:38.603Z,1.67
2019-05-16T09:33:42.846Z,1.80
2019-05-16T09:35:47.818Z,1.40
2019-05-16T09:37:52.620Z,1.50
2019-05-16T09:39:57.557Z,1.53
2019-05-16T09:42:02.279Z,1.67
2019-05-16T09:44:09.491Z,1.10
2019-05-16T09:46:13.045Z,1.70
2019-05-16T09:48:18.969Z,1.60
2019-05-16T09:50:26.478Z,1.43
2019-05-16T09:52:30.555Z,1.40
2019-05-16T09:54:35.059Z,1.30
2019-05-16T09:56:39.526Z,1.30
2019-05-16T09:58:46.560Z,1.40
2019-05-16T10:00:50.199Z,1.50
2019-05-16T10:02:54.766Z,1.40
2019-05-16T10:04:59.250Z,1.70
2019-05-16T10:07:06.507Z,1.33
2019-05-16T10:09:10.019Z,1.10
2019-05-16T10:11:17.837Z,1.43
2019-05-16T10:13:20.726Z,1.30
2019-05-16T10:15:27.006Z,1.10
2019-05-16T10:17:31.627Z,0.90
2019-05-16T10:19:36.784Z,1.20
2019-05-16T10:21:41.479Z,1.70
2019-05-16T10:23:46.944Z,1.70
2019-05-16T10:25:51.751Z,1.33
2019-05-16T10:27:56.230Z,1.17
2019-05-16T10:30:01.458Z,0.80
2019-05-16T10:32:07.608Z,1.13
2019-05-16T10:34:12.250Z,1.90
2019-05-16T10:36:17.194Z,1.30
2019-05-16T10:38:23.020Z,1.60
2019-05-16T10:40:27.607Z,1.70
2019-05-16T10:42:32.126Z,1.60
2019-05-16T10:44:38.393Z,1.43
2019-05-16T10:46:42.801Z,1.50
2019-05-16T10:48:47.408Z,1.40
2019-05-16T10:50:51.995Z,1.53
2019-05-16T10:53:20.633Z,1.40
2019-05-16T10:55:03.031Z,1.60
2019-05-16T10:57:08.303Z,2.47
2019-05-16T10:59:51.197Z,2.13
2019-05-16T11:01:27.449Z,2.40
2019-05-16T11:03:27.540Z,2.20
2019-05-16T11:05:36.025Z,2.07
2019-05-16T11:07:37.902Z,2.20
2019-05-16T11:09:54.889Z,2.03
2019-05-16T11:11:48.718Z,2.70
2019-05-16T11:13:53.207Z,1.90
2019-05-16T11:15:57.821Z,2.60
2019-05-16T11:18:02.306Z,2.33
2019-05-16T11:20:06.998Z,2.13
2019-05-16T11:22:11.635Z,2.03
2019-05-16T11:24:16.171Z,2.43
2019-05-16T11:26:20.755Z,2.10
2019-05-16T11:28:25.238Z,2.93
2019-05-16T11:30:29.753Z,2.70
2019-05-16T11:32:34.336Z,2.77
2019-05-16T11:34:38.826Z,1.70
2019-05-16T11:36:43.319Z,1.80
2019-05-16T11:38:47.811Z,2.30
2019-05-16T11:40:52.387Z,1.97
2019-05-16T11:43:06.765Z,1.77
2019-05-16T11:45:03.084Z,2.00
2019-05-16T11:47:08.273Z,1.97
2019-05-16T11:49:13.186Z,1.70
2019-05-16T11:51:17.691Z,2.10
2019-05-16T11:53:22.258Z,1.40
2019-05-16T11:55:33.679Z,1.70
2019-05-16T11:57:32.910Z,1.40
2019-05-16T11:59:37.607Z,1.30
2019-05-16T12:01:42.162Z,1.57
2019-05-16T12:03:46.925Z,2.10
2019-05-16T12:05:51.542Z,1.90
2019-05-16T12:07:57.335Z,1.73
2019-05-16T12:10:02.104Z,2.10
2019-05-16T12:12:08.704Z,1.50
2019-05-16T12:14:12.874Z,1.60
2019-05-16T12:16:18.804Z,1.80
2019-05-16T12:18:23.590Z,1.80
2019-05-16T12:20:28.092Z,1.40
2019-05-16T12:22:32.604Z,1.60
2019-05-16T12:24:41.149Z,1.73
2019-05-16T12:26:43.370Z,1.70
2019-05-16T12:28:47.906Z,1.40
2019-05-16T12:30:52.394Z,1.67
2019-05-16T12:32:58.103Z,1.27
2019-05-16T12:35:02.871Z,1.60
2019-05-16T12:37:07.613Z,1.50
2019-05-16T12:39:12.114Z,1.73
2019-05-16T12:41:16.623Z,1.60
2019-05-16T12:43:21.191Z,2.90
2019-05-16T12:45:27.496Z,1.60
2019-05-16T12:47:31.894Z,1.90
2019-05-16T12:49:36.483Z,2.30
2019-05-16T12:51:40.963Z,1.70
2019-05-16T12:53:47.719Z,1.13
2019-05-16T12:55:51.679Z,1.60
2019-05-16T12:58:11.835Z,1.93
2019-05-16T13:00:02.346Z,1.27
2019-05-16T13:02:07.619Z,1.67
2019-05-16T13:04:12.673Z,1.30
2019-05-16T13:06:17.395Z,1.57
2019-05-16T13:08:21.943Z,1.70
2019-05-16T13:10:27.006Z,1.60
2019-05-16T13:12:31.735Z,1.77
2019-05-16T13:14:40.111Z,1.70
2019-05-16T13:16:42.427Z,1.10
2019-05-16T13:18:47.503Z,1.70
2019-05-16T13:20:52.091Z,1.80
2019-05-16T13:22:56.895Z,1.73
2019-05-16T13:25:01.564Z,2.07
2019-05-16T13:27:08.432Z,1.77
2019-05-16T13:29:12.364Z,1.93
2019-05-16T13:31:17.288Z,1.87
2019-05-16T13:33:21.908Z,2.07
2019-05-16T13:35:27.211Z,2.35
2019-05-16T13:37:32.197Z,2.33
2019-05-16T13:39:36.726Z,2.00
2019-05-16T13:41:41.487Z,2.60
2019-05-16T13:43:46.334Z,2.12
2019-05-16T13:45:51.108Z,2.45
2019-05-16T13:47:57.336Z,2.45
2019-05-16T13:50:02.657Z,2.33
2019-05-16T13:52:07.502Z,1.90
2019-05-16T13:54:12.354Z,1.60
2019-05-16T13:56:17.725Z,1.98
2019-05-16T13:58:22.745Z,2.17
2019-05-16T14:00:28.085Z,1.90
2019-05-16T14:02:32.998Z,2.35
2019-05-16T14:04:37.767Z,2.58
2019-05-16T14:06:42.620Z,2.70
2019-05-16T14:08:47.362Z,2.15
2019-05-16T14:10:52.189Z,2.35
2019-05-16T14:12:57.721Z,2.55
2019-05-16T14:15:02.843Z,2.15
2019-05-16T14:17:14.124Z,2.50
2019-05-16T14:19:15.067Z,2.42
2019-05-16T14:21:20.559Z,2.30
2019-05-16T14:23:28.105Z,2.30
2019-05-16T14:25:31.792Z,2.20
2019-05-16T14:27:38.245Z,2.30
2019-05-16T14:29:43.032Z,2.40
2019-05-16T14:31:47.855Z,2.90
2019-05-16T14:33:52.628Z,2.45
2019-05-16T14:35:57.442Z,4.42
2019-05-16T14:38:02.208Z,2.50
2019-05-16T14:40:07.471Z,3.37
2019-05-16T14:42:12.225Z,2.42
2019-05-16T14:44:18.364Z,2.90
2019-05-16T14:46:23.430Z,3.35
2019-05-16T14:48:28.210Z,2.75
2019-05-16T14:50:33.057Z,2.92
2019-05-16T14:52:37.834Z,2.95
2019-05-16T14:54:42.592Z,3.42
2019-05-16T14:56:47.763Z,3.02
2019-05-16T14:58:52.598Z,2.33
2019-05-16T15:00:57.738Z,2.42
2019-05-16T15:03:02.713Z,2.65
2019-05-16T15:05:07.999Z,2.80
2019-05-16T15:07:13.018Z,2.72
2019-05-16T15:09:17.922Z,2.90
2019-05-16T15:11:22.707Z,2.72
2019-05-16T15:13:27.987Z,3.60
2019-05-16T15:15:33.119Z,2.60
2019-05-16T15:17:37.872Z,2.55
2019-05-16T15:19:42.672Z,2.90
2019-05-16T15:21:47.796Z,3.65
2019-05-16T15:23:52.711Z,2.77
2019-05-16T15:25:57.468Z,3.15
2019-05-16T15:28:02.238Z,2.72
2019-05-16T15:30:07.642Z,2.77
2019-05-16T15:32:12.402Z,2.42
2019-05-16T15:34:17.230Z,2.55
2019-05-16T15:36:21.999Z,2.92
2019-05-16T15:38:27.236Z,3.25
2019-05-16T15:40:32.259Z,3.25
2019-05-16T15:42:37.459Z,3.05
2019-05-16T15:44:42.376Z,2.27
2019-05-16T15:46:47.814Z,2.55
2019-05-16T15:48:53.170Z,2.72
2019-05-16T15:50:59.933Z,3.25
2019-05-16T15:53:07.744Z,2.65
2019-05-16T15:55:11.266Z,2.77
2019-05-16T15:57:17.604Z,2.17
2019-05-16T15:59:22.528Z,2.87
2019-05-16T16:01:27.384Z,2.95
2019-05-16T16:03:32.171Z,3.08
2019-05-16T16:05:37.538Z,3.10
2019-05-16T16:07:42.462Z,2.95
2019-05-16T16:09:47.218Z,3.25
2019-05-16T16:11:52.044Z,3.05
2019-05-16T16:13:57.718Z,2.30
2019-05-16T16:16:02.767Z,2.92
2019-05-16T16:18:08.939Z,3.08
2019-05-16T16:20:16.733Z,3.40
2019-05-16T16:22:20.444Z,3.52
2019-05-16T16:24:27.878Z,3.00
2019-05-16T16:26:34.039Z,2.92
2019-05-16T16:28:38.767Z,3.50
2019-05-16T16:30:43.518Z,3.67
2019-05-16T16:32:48.271Z,3.35
2019-05-16T16:34:53.085Z,2.85
2019-05-16T16:36:57.851Z,3.77
2019-05-16T16:39:02.981Z,2.50
2019-05-16T16:41:08.231Z,3.05
2019-05-16T16:43:13.164Z,2.62
2019-05-16T16:45:18.104Z,3.12
2019-05-16T16:47:22.895Z,3.52
2019-05-16T16:49:28.070Z,3.35
2019-05-16T16:51:32.914Z,3.15
2019-05-16T16:53:38.013Z,3.30
2019-05-16T16:55:43.030Z,2.83
2019-05-16T16:57:47.868Z,2.85
2019-05-16T16:59:52.647Z,3.72
2019-05-16T17:01:57.410Z,3.25
2019-05-16T17:04:02.163Z,3.00
2019-05-16T17:06:06.935Z,3.30
2019-05-16T17:08:11.679Z,2.87
2019-05-16T17:10:16.621Z,2.83
2019-05-16T17:12:21.390Z,3.70
2019-05-16T17:14:26.419Z,3.05
2019-05-16T17:16:31.450Z,2.65
2019-05-16T17:18:36.880Z,2.80
2019-05-16T17:20:41.951Z,3.15
2019-05-16T17:22:46.842Z,3.20
2019-05-16T17:24:51.578Z,3.00
2019-05-16T17:26:57.764Z,3.60
2019-05-16T17:29:02.973Z,3.00
2019-05-16T17:31:07.786Z,3.72
2019-05-16T17:33:12.610Z,2.85
2019-05-16T17:35:18.672Z,3.10
2019-05-16T17:37:26.491Z,2.55
2019-05-16T17:39:30.552Z,3.35
2019-05-16T17:41:36.860Z,3.20
2019-05-16T17:43:41.833Z,2.70
2019-05-16T17:45:47.277Z,3.22
2019-05-16T17:47:52.281Z,3.58
2019-05-16T17:49:58.722Z,3.05
2019-05-16T17:52:03.518Z,3.05
2019-05-16T17:54:08.490Z,3.33
2019-05-16T17:56:13.444Z,3.30
2019-05-16T17:58:18.792Z,3.15
2019-05-16T18:00:28.141Z,3.33
2019-05-16T18:02:30.701Z,3.20
2019-05-16T18:04:37.255Z,2.60
2019-05-16T18:06:42.254Z,3.02
2019-05-16T18:08:47.036Z,3.70
2019-05-16T18:10:51.799Z,2.92
2019-05-16T18:12:56.905Z,2.80
2019-05-16T18:15:01.791Z,2.67
2019-05-16T18:17:07.499Z,2.75
2019-05-16T18:19:12.907Z,3.00
2019-05-16T18:21:17.694Z,2.85
2019-05-16T18:23:22.530Z,2.80
2019-05-16T18:25:27.334Z,3.22
2019-05-16T18:27:32.102Z,2.85
2019-05-16T18:29:36.938Z,3.45
2019-05-16T18:31:41.872Z,2.70
2019-05-16T18:33:46.651Z,2.25
2019-05-16T18:35:51.398Z,2.95
2019-05-16T18:37:56.961Z,2.35
2019-05-16T18:40:01.927Z,4.10
2019-05-16T18:42:06.826Z,3.37
2019-05-16T18:44:11.620Z,3.12
2019-05-16T18:46:16.437Z,3.00
2019-05-16T18:48:21.226Z,3.40
2019-05-16T18:50:26.590Z,3.05
2019-05-16T18:52:31.575Z,3.22
2019-05-16T18:54:37.553Z,2.50
2019-05-16T18:56:42.626Z,1.95
2019-05-16T18:58:47.408Z,2.62
2019-05-16T19:00:52.179Z,2.47
2019-05-16T19:02:59.389Z,2.62
2019-05-16T19:05:03.610Z,3.00
2019-05-16T19:07:08.415Z,2.87
2019-05-16T19:09:13.170Z,2.37
2019-05-16T19:11:17.926Z,2.25
2019-05-16T19:13:22.694Z,2.50
2019-05-16T19:15:27.471Z,2.70
2019-05-16T19:17:32.341Z,2.87
2019-05-16T19:19:37.609Z,2.72
2019-05-16T19:21:42.725Z,3.15
2019-05-16T19:23:47.504Z,2.27
2019-05-16T19:25:52.291Z,1.90
2019-05-16T19:27:57.102Z,2.10
2019-05-16T19:30:01.927Z,2.40
2019-05-16T19:32:06.899Z,2.22
2019-05-16T19:34:11.686Z,2.33
2019-05-16T19:36:16.582Z,2.58
2019-05-16T19:38:21.372Z,2.22
2019-05-16T19:40:27.214Z,2.60
2019-05-16T19:42:31.959Z,2.90
2019-05-16T19:44:37.306Z,2.58
2019-05-16T19:46:42.298Z,2.40
2019-05-16T19:48:47.954Z,2.12
2019-05-16T19:50:56.665Z,2.40
2019-05-16T19:53:01.030Z,2.60
2019-05-16T19:55:26.999Z,2.75
2019-05-16T19:57:32.016Z,2.25
2019-05-16T19:59:36.827Z,1.98
2019-05-16T20:01:41.663Z,2.55
2019-05-16T20:03:47.165Z,2.80
2019-05-16T20:05:53.115Z,2.22
2019-05-16T20:08:00.338Z,2.90
2019-05-16T20:10:09.060Z,3.25
2019-05-16T20:12:13.273Z,3.30
2019-05-16T20:14:27.252Z,2.60
2019-05-16T20:16:32.201Z,2.70
2019-05-16T20:18:37.581Z,1.92
2019-05-16T20:20:42.918Z,2.35
2019-05-16T20:22:48.683Z,3.45
2019-05-16T20:24:53.418Z,3.00
2019-05-16T20:26:58.267Z,2.98
2019-05-16T20:29:03.671Z,2.62
2019-05-16T20:31:08.474Z,2.62
2019-05-16T20:33:14.282Z,3.00
2019-05-16T20:35:21.083Z,2.75
2019-05-16T20:37:31.117Z,3.22
2019-05-16T20:39:37.167Z,3.10
2019-05-16T20:41:42.743Z,2.85
2019-05-16T20:43:50.043Z,2.70
2019-05-16T20:45:56.779Z,2.37
2019-05-16T20:48:15.342Z,2.62
2019-05-16T20:50:18.987Z,3.02
2019-05-16T20:52:23.800Z,2.25
2019-05-16T20:54:28.612Z,3.17
2019-05-16T20:56:33.644Z,2.83
2019-05-16T20:58:38.395Z,3.15
2019-05-16T21:00:43.242Z,2.90
2019-05-16T21:02:49.561Z,3.10
2019-05-16T21:04:54.534Z,2.72
2019-05-16T21:07:05.679Z,2.50
2019-05-16T21:09:06.846Z,3.30
2019-05-16T21:11:11.670Z,3.02
2019-05-16T21:13:17.340Z,2.70
2019-05-16T21:15:22.310Z,2.60
2019-05-16T21:17:27.196Z,3.75
2019-05-16T21:19:32.924Z,2.62
2019-05-16T21:21:37.676Z,3.00
2019-05-16T21:23:42.923Z,3.33
2019-05-16T21:25:48.390Z,3.12
2019-05-16T21:27:53.159Z,3.30
2019-05-16T21:29:58.077Z,2.92
2019-05-16T21:32:03.059Z,4.70
2019-05-16T21:34:08.170Z,3.47
2019-05-16T21:36:13.062Z,3.00
2019-05-16T21:38:18.042Z,3.60
2019-05-16T21:40:23.118Z,3.25
2019-05-16T21:42:30.286Z,4.35
2019-05-16T21:44:37.358Z,4.15
2019-05-16T21:46:42.407Z,5.30
2019-05-16T21:48:49.702Z,5.35
2019-05-16T21:50:56.856Z,4.70
2019-05-16T21:53:00.972Z,5.10
2019-05-16T21:55:07.125Z,5.12
2019-05-16T21:57:15.258Z,6.00
2019-05-16T21:59:19.603Z,6.28
2019-05-16T22:01:26.685Z,4.80
2019-05-16T22:03:30.985Z,4.90
2019-05-16T22:05:37.027Z,4.50
2019-05-16T22:07:47.182Z,4.62
2019-05-16T22:09:51.465Z,4.90
2019-05-16T22:11:57.343Z,4.40
2019-05-16T22:14:03.027Z,4.37
2019-05-16T22:16:08.291Z,5.17
2019-05-16T22:18:13.125Z,4.55
2019-05-16T22:20:17.906Z,5.47
2019-05-16T22:22:22.662Z,5.00
2019-05-16T22:24:27.418Z,5.55
2019-05-16T22:26:32.183Z,6.17
2019-05-16T22:28:37.441Z,5.70
2019-05-16T22:30:42.302Z,5.90
2019-05-16T22:32:47.236Z,6.42
2019-05-16T22:34:51.990Z,6.72
2019-05-16T22:36:57.252Z,5.85
2019-05-16T22:39:02.280Z,6.62
2019-05-16T22:41:10.258Z,5.80
2019-05-16T22:43:13.502Z,5.53
2019-05-16T22:45:20.296Z,5.75
2019-05-16T22:47:26.633Z,6.97
2019-05-16T22:49:31.806Z,6.58
2019-05-16T22:51:36.675Z,5.40
2019-05-16T22:53:41.538Z,6.65
2019-05-16T22:55:47.822Z,6.15
2019-05-16T22:57:52.841Z,7.47
2019-05-16T22:59:57.694Z,5.80
2019-05-16T23:02:03.566Z,7.17
2019-05-16T23:04:08.386Z,7.30
2019-05-16T23:06:13.142Z,7.25
2019-05-16T23:08:17.959Z,7.17
2019-05-16T23:10:25.044Z,7.28
2019-05-16T23:12:29.252Z,7.53
2019-05-16T23:14:34.016Z,8.00
2019-05-16T23:16:39.584Z,8.18
2019-05-16T23:18:46.424Z,6.85
2019-05-16T23:20:51.309Z,6.35
2019-05-16T23:22:56.441Z,6.95
2019-05-16T23:25:01.251Z,8.08
2019-05-16T23:27:06.919Z,7.30
2019-05-16T23:29:12.009Z,7.67
2019-05-16T23:31:16.914Z,7.75
2019-05-16T23:33:21.683Z,6.75
2019-05-16T23:35:26.908Z,7.55
2019-05-16T23:37:31.799Z,8.10
2019-05-16T23:39:37.894Z,7.60
2019-05-16T23:41:42.982Z,7.33
2019-05-16T23:43:47.782Z,7.03
2019-05-16T23:45:52.555Z,6.78
2019-05-16T23:47:57.351Z,6.97
2019-05-16T23:50:02.140Z,7.47
2019-05-16T23:52:07.527Z,7.65
2019-05-16T23:54:12.546Z,7.33
2019-05-16T23:56:17.331Z,6.75
2019-05-16T23:58:22.167Z,7.95
